Time;durP1;ratioP1;P1;durP2;ratioP2;P2;SDS_P1;SDS_P2;PMS_P1;PMS_P2;Temp;Humidity;BMP_temperature;BMP_pressure;BME280_temperature;BME280_humidity;BME280_pressure;Samples;Min_cycle;Max_cycle;Signal;HPM_P1;HPM_P2
2023/03/03 00:01:10;;;;;;;0.23;0.23;;;3.00;99.90;;;;;;5092810;28;20608;-80
2023/03/03 00:03:36;;;;;;;0.20;0.20;;;3.00;99.90;;;;;;5074961;28;20692;-80
2023/03/03 00:06:03;;;;;;;0.20;0.20;;;3.00;99.90;;;;;;5058152;28;20328;-81
2023/03/03 00:08:31;;;;;;;0.40;0.40;;;3.00;99.90;;;;;;5075478;28;20267;-80
2023/03/03 00:10:59;;;;;;;0.37;0.37;;;3.00;99.90;;;;;;5074997;28;20572;-80
2023/03/03 00:13:26;;;;;;;0.90;0.90;;;3.00;99.90;;;;;;5072236;28;20860;-80
2023/03/03 00:15:53;;;;;;;0.30;0.30;;;3.00;99.90;;;;;;5089641;28;20208;-80
2023/03/03 00:18:39;;;;;;;0.40;0.40;;;3.00;99.90;;;;;;5089656;28;20216;-80
2023/03/03 00:21:30;;;;;;;1.80;0.83;;;3.00;99.90;;;;;;5089580;28;20228;-80
2023/03/03 00:24:11;;;;;;;1.00;0.70;;;3.00;99.90;;;;;;5089191;28;20511;-80
2023/03/03 00:26:39;;;;;;;0.77;0.77;;;3.00;99.90;;;;;;5089694;28;20246;-81
2023/03/03 00:29:23;;;;;;;0.67;0.67;;;3.00;99.90;;;;;;5090080;28;20184;-80
2023/03/03 00:31:49;;;;;;;0.30;0.30;;;3.00;99.90;;;;;;5089174;28;20239;-80
2023/03/03 00:34:18;;;;;;;0.30;0.30;;;3.10;99.90;;;;;;5054447;28;20443;-80
2023/03/03 00:36:45;;;;;;;0.30;0.30;;;3.00;99.90;;;;;;5071145;28;20228;-81
2023/03/03 00:39:26;;;;;;;0.30;0.30;;;3.00;99.90;;;;;;5089250;28;20269;-81
2023/03/03 00:41:52;;;;;;;0.30;0.30;;;3.00;99.90;;;;;;5089283;28;20172;-81
2023/03/03 00:44:34;;;;;;;0.20;0.20;;;3.00;99.90;;;;;;5089985;28;20180;-80
2023/03/03 00:47:31;;;;;;;0.30;0.30;;;3.00;99.90;;;;;;5089424;28;20197;-79
2023/03/03 00:50:30;;;;;;;2.23;0.60;;;3.00;99.90;;;;;;5089151;28;20700;-80
2023/03/03 00:53:05;;;;;;;0.30;0.30;;;3.10;99.90;;;;;;5089104;28;20209;-81
2023/03/03 00:55:32;;;;;;;0.40;0.40;;;3.20;99.90;;;;;;5089009;28;20223;-80
2023/03/03 00:57:58;;;;;;;1.20;0.60;;;3.20;99.90;;;;;;5070484;28;20221;-81
2023/03/03 01:00:24;;;;;;;0.30;0.30;;;3.20;99.90;;;;;;5070689;28;20239;-80
2023/03/03 01:02:50;;;;;;;0.30;0.30;;;3.20;99.90;;;;;;5070612;28;20177;-80
2023/03/03 01:05:17;;;;;;;0.37;0.37;;;3.10;99.90;;;;;;5071212;28;20609;-81
2023/03/03 01:07:43;;;;;;;0.30;0.30;;;3.20;99.90;;;;;;5088872;28;20300;-80
2023/03/03 01:10:10;;;;;;;0.57;0.57;;;3.10;99.90;;;;;;5088448;28;20228;-80
2023/03/03 01:12:37;;;;;;;0.33;0.33;;;3.10;99.90;;;;;;5088489;28;20358;-80
2023/03/03 01:15:08;;;;;;;1.00;1.00;;;3.00;99.90;;;;;;5054073;28;20682;-80
2023/03/03 01:17:35;;;;;;;0.47;0.47;;;3.00;99.90;;;;;;5070986;28;20337;-80
2023/03/03 01:20:01;;;;;;;0.30;0.30;;;3.00;99.90;;;;;;5070530;28;20241;-81
2023/03/03 01:22:27;;;;;;;8.93;0.60;;;3.00;99.90;;;;;;5070245;28;20220;-80
2023/03/03 01:24:53;;;;;;;1.17;1.17;;;3.00;99.90;;;;;;5069042;28;20229;-81
2023/03/03 01:27:18;;;;;;;0.30;0.30;;;3.00;99.90;;;;;;5070071;28;20704;-80
2023/03/03 01:29:44;;;;;;;0.50;0.50;;;3.00;99.90;;;;;;5053457;28;20180;-80
2023/03/03 01:32:10;;;;;;;0.30;0.30;;;3.00;99.90;;;;;;5070730;28;20222;-81
2023/03/03 01:34:35;;;;;;;0.30;0.30;;;3.00;99.90;;;;;;5088210;28;20224;-81
2023/03/03 01:37:01;;;;;;;0.30;0.30;;;3.00;99.90;;;;;;5087799;28;20220;-81
2023/03/03 01:39:27;;;;;;;11.03;0.73;;;3.00;99.90;;;;;;5069885;28;20315;-80
2023/03/03 01:41:53;;;;;;;0.43;0.43;;;3.00;99.90;;;;;;5053185;28;20508;-81
2023/03/03 01:44:18;;;;;;;0.33;0.33;;;3.00;99.90;;;;;;5070616;28;20203;-80
2023/03/03 01:47:06;;;;;;;0.30;0.30;;;3.00;99.90;;;;;;5069979;28;20649;-81
2023/03/03 01:49:41;;;;;;;0.60;0.60;;;3.00;99.90;;;;;;5069532;28;20295;-81
2023/03/03 01:52:16;;;;;;;0.40;0.40;;;3.00;99.90;;;;;;5069766;28;20397;-80
2023/03/03 01:54:48;;;;;;;0.47;0.47;;;3.00;99.90;;;;;;5069553;28;20649;-80
2023/03/03 01:57:24;;;;;;;0.20;0.20;;;3.10;99.90;;;;;;5087791;28;20296;-81
2023/03/03 01:59:52;;;;;;;0.50;0.50;;;3.10;99.90;;;;;;5087554;28;20277;-81
2023/03/03 02:02:18;;;;;;;0.37;0.37;;;3.10;99.90;;;;;;5088085;28;20374;-80
2023/03/03 02:04:44;;;;;;;7.63;0.83;;;3.00;99.90;;;;;;5087550;28;20727;-80
2023/03/03 02:07:13;;;;;;;9.17;2.00;;;3.00;99.90;;;;;;5069242;28;20236;-80
2023/03/03 02:09:47;;;;;;;0.87;0.87;;;3.10;99.90;;;;;;5069458;28;20243;-80
2023/03/03 02:12:16;;;;;;;0.80;0.80;;;3.10;99.90;;;;;;5087487;28;20218;-80
2023/03/03 02:14:42;;;;;;;1.90;1.17;;;3.00;99.90;;;;;;5069361;28;20183;-81
2023/03/03 02:17:08;;;;;;;0.20;0.20;;;3.00;99.90;;;;;;5069743;28;20271;-80
2023/03/03 02:20:13;;;;;;;0.40;0.40;;;3.00;99.90;;;;;;5087121;28;20606;-80
2023/03/03 02:22:49;;;;;;;2.20;2.10;;;2.90;99.90;;;;;;5087253;28;20670;-80
2023/03/03 02:25:30;;;;;;;0.57;0.57;;;2.90;99.90;;;;;;5069826;28;20226;-79
2023/03/03 02:27:56;;;;;;;0.47;0.47;;;2.90;99.90;;;;;;5087271;28;20223;-80
2023/03/03 02:30:23;;;;;;;0.30;0.30;;;2.90;99.90;;;;;;5068933;28;20710;-79
2023/03/03 02:32:49;;;;;;;0.70;0.70;;;2.90;99.90;;;;;;5069062;28;20204;-81
2023/03/03 02:35:38;;;;;;;0.30;0.30;;;2.90;99.90;;;;;;5069716;28;20191;-80
2023/03/03 02:38:16;;;;;;;0.40;0.40;;;2.80;99.90;;;;;;5087145;28;20205;-80
2023/03/03 02:41:02;;;;;;;0.30;0.30;;;2.80;99.90;;;;;;5087001;28;20224;-80
2023/03/03 02:43:35;;;;;;;0.30;0.30;;;2.80;99.90;;;;;;5064111;28;20219;-80
2023/03/03 02:46:01;;;;;;;0.30;0.30;;;2.80;99.90;;;;;;5086770;28;20708;-80
2023/03/03 02:48:27;;;;;;;0.30;0.30;;;2.80;99.90;;;;;;5086827;28;20299;-80
2023/03/03 02:50:53;;;;;;;0.40;0.40;;;2.70;99.90;;;;;;5086972;28;20188;-80
2023/03/03 02:53:18;;;;;;;0.73;0.47;;;2.70;99.90;;;;;;5087392;28;20769;-80
2023/03/03 02:55:44;;;;;;;0.30;0.30;;;2.70;99.90;;;;;;5068980;28;20216;-81
2023/03/03 02:58:10;;;;;;;0.30;0.30;;;2.80;99.90;;;;;;5068689;28;20299;-79
2023/03/03 03:00:35;;;;;;;1.87;1.77;;;2.80;99.90;;;;;;5068769;28;20325;-80
2023/03/03 03:03:01;;;;;;;0.20;0.20;;;2.90;99.90;;;;;;5068794;28;20216;-80
2023/03/03 03:05:27;;;;;;;0.40;0.40;;;2.90;99.90;;;;;;5087378;28;20177;-80
2023/03/03 03:07:56;;;;;;;0.87;0.87;;;2.90;99.90;;;;;;5068644;28;20244;-80
2023/03/03 03:10:22;;;;;;;0.50;0.50;;;2.90;99.90;;;;;;5068888;28;20227;-81
2023/03/03 03:12:47;;;;;;;0.33;0.33;;;2.90;99.90;;;;;;5086583;28;20216;-80
2023/03/03 03:15:14;;;;;;;0.30;0.30;;;3.00;99.90;;;;;;5086306;28;20572;-81
2023/03/03 03:17:40;;;;;;;0.30;0.30;;;3.00;99.90;;;;;;5086702;28;20181;-80
2023/03/03 03:20:06;;;;;;;0.93;0.43;;;3.10;99.90;;;;;;5068804;28;20232;-81
2023/03/03 03:22:32;;;;;;;0.40;0.40;;;3.10;99.90;;;;;;5052088;28;20220;-80
2023/03/03 03:24:58;;;;;;;0.40;0.40;;;3.10;99.90;;;;;;5068615;28;20223;-80
2023/03/03 03:27:24;;;;;;;0.50;0.50;;;3.20;99.90;;;;;;5068217;28;20220;-80
2023/03/03 03:29:49;;;;;;;0.30;0.30;;;3.20;99.90;;;;;;5068500;28;20638;-79
2023/03/03 03:32:15;;;;;;;0.30;0.30;;;3.20;99.90;;;;;;5086727;28;20187;-80
2023/03/03 03:34:41;;;;;;;0.20;0.20;;;3.20;99.90;;;;;;5086470;28;20223;-79
2023/03/03 03:37:08;;;;;;;0.30;0.30;;;3.10;99.90;;;;;;5068412;28;20216;-81
2023/03/03 03:39:35;;;;;;;0.30;0.30;;;3.10;99.90;;;;;;5086280;28;20368;-80
2023/03/03 03:42:01;;;;;;;0.73;0.73;;;3.00;99.90;;;;;;5068207;28;20208;-81
2023/03/03 03:44:27;;;;;;;1.03;0.80;;;3.10;99.90;;;;;;5052406;28;20245;-79
2023/03/03 03:46:52;;;;;;;0.30;0.30;;;3.10;99.90;;;;;;5068356;28;20223;-80
2023/03/03 03:49:18;;;;;;;0.40;0.40;;;3.10;99.90;;;;;;5088292;28;20224;-80
2023/03/03 03:51:44;;;;;;;0.30;0.30;;;3.10;99.90;;;;;;5055533;28;20217;-80
2023/03/03 03:54:09;;;;;;;7.83;1.47;;;3.00;99.90;;;;;;5071698;28;20304;-80
2023/03/03 03:56:35;;;;;;;0.67;0.67;;;3.00;99.90;;;;;;5071917;28;20177;-81
2023/03/03 03:59:01;;;;;;;0.30;0.30;;;3.10;99.90;;;;;;5090295;28;20177;-81
2023/03/03 04:01:27;;;;;;;0.30;0.30;;;3.20;99.90;;;;;;5071932;28;20232;-80
2023/03/03 04:03:52;;;;;;;0.30;0.30;;;3.20;99.90;;;;;;5071823;28;20838;-79
2023/03/03 04:06:18;;;;;;;0.40;0.40;;;3.20;99.90;;;;;;5071783;28;20223;-80
2023/03/03 04:08:44;;;;;;;0.30;0.30;;;3.20;99.90;;;;;;5089602;28;20206;-80
2023/03/03 04:11:09;;;;;;;1.97;1.87;;;3.20;99.90;;;;;;5090282;28;20565;-80
2023/03/03 04:13:35;;;;;;;0.37;0.37;;;3.20;99.90;;;;;;5089630;28;20221;-80
2023/03/03 04:16:01;;;;;;;0.30;0.30;;;3.10;99.90;;;;;;5089620;28;20224;-80
2023/03/03 04:18:27;;;;;;;0.30;0.30;;;3.10;99.90;;;;;;5071583;28;20229;-80
2023/03/03 04:20:53;;;;;;;0.30;0.30;;;3.10;99.90;;;;;;5089361;28;20213;-80
2023/03/03 04:23:20;;;;;;;0.30;0.30;;;3.10;99.90;;;;;;5090242;28;20276;-80
2023/03/03 04:25:47;;;;;;;0.40;0.40;;;3.10;99.90;;;;;;5055004;28;20216;-80
2023/03/03 04:28:14;;;;;;;0.30;0.30;;;3.10;99.90;;;;;;5054548;28;20216;-80
2023/03/03 04:30:39;;;;;;;0.40;0.40;;;3.10;99.90;;;;;;5071182;28;20307;-80
2023/03/03 04:33:05;;;;;;;0.30;0.30;;;3.10;99.90;;;;;;5071357;28;20319;-79
2023/03/03 04:35:31;;;;;;;0.20;0.20;;;3.10;99.90;;;;;;5071816;28;20681;-80
2023/03/03 04:37:57;;;;;;;4.13;0.50;;;3.10;99.90;;;;;;5071191;28;20432;-81
2023/03/03 04:40:22;;;;;;;0.87;0.60;;;3.10;99.90;;;;;;5071080;28;20236;-80
2023/03/03 04:42:48;;;;;;;0.40;0.40;;;3.00;99.90;;;;;;5054562;28;20581;-80
2023/03/03 04:45:14;;;;;;;0.93;0.93;;;3.00;99.90;;;;;;5088968;28;20220;-80
2023/03/03 04:47:40;;;;;;;0.47;0.47;;;3.00;99.90;;;;;;5089231;28;20184;-81
2023/03/03 04:50:07;;;;;;;0.70;0.70;;;2.90;99.90;;;;;;5089419;28;20184;-80
2023/03/03 04:52:33;;;;;;;0.50;0.50;;;2.90;99.90;;;;;;5088994;28;20209;-80
2023/03/03 04:54:59;;;;;;;0.30;0.30;;;3.00;99.90;;;;;;5070887;28;20239;-80
2023/03/03 04:57:24;;;;;;;0.20;0.20;;;3.00;99.90;;;;;;5071065;28;20574;-80
2023/03/03 04:59:50;;;;;;;0.20;0.20;;;2.90;99.90;;;;;;5070231;28;20208;-80
2023/03/03 05:02:16;;;;;;;0.30;0.30;;;2.90;99.90;;;;;;5054333;28;20181;-80
2023/03/03 05:04:42;;;;;;;0.30;0.30;;;2.90;99.90;;;;;;5088762;28;20220;-81
2023/03/03 05:07:08;;;;;;;0.30;0.30;;;3.00;99.90;;;;;;5088448;28;20895;-80
2023/03/03 05:09:34;;;;;;;0.37;0.37;;;3.00;99.90;;;;;;5070735;28;20222;-80
2023/03/03 05:12:00;;;;;;;0.40;0.40;;;3.00;99.90;;;;;;5070556;28;20670;-80
2023/03/03 05:14:26;;;;;;;0.30;0.30;;;3.00;99.90;;;;;;5071228;28;20264;-80
2023/03/03 05:16:52;;;;;;;0.30;0.30;;;3.00;99.90;;;;;;5088330;28;20223;-80
2023/03/03 05:19:18;;;;;;;0.30;0.30;;;3.00;99.90;;;;;;5053177;28;20721;-81
2023/03/03 05:21:44;;;;;;;0.30;0.30;;;3.00;99.90;;;;;;5088413;28;20223;-80
2023/03/03 05:24:13;;;;;;;0.67;0.67;;;2.90;99.90;;;;;;5088061;28;20623;-80
2023/03/03 05:26:40;;;;;;;0.63;0.63;;;2.90;99.90;;;;;;5070205;28;20669;-79
2023/03/03 05:29:06;;;;;;;0.77;0.77;;;2.80;99.90;;;;;;5070338;28;20241;-80
2023/03/03 05:31:32;;;;;;;0.30;0.30;;;2.80;99.90;;;;;;5088165;28;20220;-80
2023/03/03 05:33:58;;;;;;;0.20;0.20;;;2.80;99.90;;;;;;5070159;28;20250;-80
2023/03/03 05:36:23;;;;;;;1.57;0.63;;;2.90;99.90;;;;;;5069801;28;20220;-80
2023/03/03 05:38:49;;;;;;;0.30;0.30;;;2.90;99.90;;;;;;5053263;28;20169;-80
2023/03/03 05:41:15;;;;;;;0.30;0.30;;;3.00;99.90;;;;;;5070295;28;20200;-81
2023/03/03 05:43:41;;;;;;;0.70;0.70;;;3.10;99.90;;;;;;5069851;28;20223;-81
2023/03/03 05:46:07;;;;;;;0.30;0.30;;;3.10;99.90;;;;;;5053090;28;20773;-81
2023/03/03 05:48:32;;;;;;;0.30;0.30;;;3.20;99.90;;;;;;5088046;28;20694;-80
2023/03/03 05:50:59;;;;;;;0.30;0.30;;;3.10;99.90;;;;;;5053336;28;20226;-81
2023/03/03 05:53:26;;;;;;;0.40;0.40;;;3.00;99.90;;;;;;5088259;28;20200;-80
2023/03/03 05:55:52;;;;;;;0.30;0.30;;;2.90;99.90;;;;;;5069586;28;20359;-81
2023/03/03 05:58:18;;;;;;;0.30;0.30;;;2.90;99.90;;;;;;5053005;28;20734;-81
2023/03/03 06:00:44;;;;;;;0.30;0.30;;;2.80;99.90;;;;;;5066408;28;20588;-80
2023/03/03 06:03:09;;;;;;;0.40;0.40;;;2.70;99.90;;;;;;5086861;28;20273;-80
2023/03/03 06:05:35;;;;;;;0.30;0.30;;;2.70;99.90;;;;;;5052374;28;20790;-80
2023/03/03 06:08:01;;;;;;;0.60;0.60;;;2.50;99.90;;;;;;5087983;28;20185;-81
2023/03/03 06:10:27;;;;;;;0.20;0.20;;;2.40;99.90;;;;;;5052098;28;20300;-82
2023/03/03 06:12:53;;;;;;;0.30;0.30;;;2.30;99.90;;;;;;5052257;28;20220;-81
2023/03/03 06:15:21;;;;;;;0.33;0.33;;;2.40;99.90;;;;;;5069197;28;20213;-81
2023/03/03 06:17:47;;;;;;;1.03;1.03;;;2.40;99.90;;;;;;5086870;28;20191;-81
2023/03/03 06:20:12;;;;;;;0.30;0.30;;;2.40;99.90;;;;;;5069240;28;20236;-80
2023/03/03 06:22:38;;;;;;;0.30;0.30;;;2.40;99.90;;;;;;5069161;28;20228;-81
2023/03/03 06:25:04;;;;;;;0.50;0.50;;;2.40;99.90;;;;;;5069021;28;20224;-80
2023/03/03 06:27:30;;;;;;;0.60;0.60;;;2.50;99.90;;;;;;5086962;28;20220;-80
2023/03/03 06:29:55;;;;;;;0.20;0.20;;;2.70;99.90;;;;;;5051976;28;20749;-81
2023/03/03 06:32:21;;;;;;;0.30;0.30;;;3.10;99.90;;;;;;5069668;28;20548;-81
2023/03/03 06:34:47;;;;;;;0.40;0.40;;;3.50;99.90;;;;;;5086692;28;20224;-80
2023/03/03 06:37:13;;;;;;;0.40;0.40;;;3.80;99.90;;;;;;5086771;28;20220;-81
2023/03/03 06:39:38;;;;;;;0.20;0.20;;;4.40;99.90;;;;;;5067630;28;20317;-81
2023/03/03 06:42:05;;;;;;;0.40;0.40;;;4.90;99.90;;;;;;5068649;28;20209;-82
2023/03/03 06:44:30;;;;;;;0.47;0.47;;;5.50;99.90;;;;;;5052969;28;20184;-82
2023/03/03 06:46:56;;;;;;;0.30;0.30;;;6.20;99.90;;;;;;5068894;28;20341;-81
2023/03/03 06:49:22;;;;;;;0.67;0.67;;;6.90;99.90;;;;;;5085344;28;20208;-81
2023/03/03 06:51:48;;;;;;;0.30;0.30;;;7.00;99.90;;;;;;5068211;28;20228;-81
2023/03/03 06:54:16;;;;;;;20.67;0.70;;;6.40;99.90;;;;;;5068380;28;20843;-82
2023/03/03 06:56:43;;;;;;;0.43;0.43;;;5.80;99.90;;;;;;5068673;28;20181;-81
2023/03/03 06:59:17;;;;;;;2.23;2.03;;;6.10;99.90;;;;;;5069423;28;20180;-82
2023/03/03 07:01:45;;;;;;;0.20;0.20;;;7.40;99.90;;;;;;5086945;28;20220;-82
2023/03/03 07:04:32;;;;;;;0.30;0.30;;;7.80;99.90;;;;;;5087566;28;20220;-82
2023/03/03 07:07:10;;;;;;;0.60;0.60;;;7.90;99.90;;;;;;5068390;28;20266;-82
2023/03/03 07:09:36;;;;;;;0.30;0.30;;;7.70;99.90;;;;;;5069204;28;20225;-81
2023/03/03 07:12:10;;;;;;;0.30;0.30;;;7.50;99.90;;;;;;5051977;28;20223;-81
2023/03/03 07:14:42;;;;;;;1.37;1.27;;;7.10;99.90;;;;;;5068970;28;20680;-83
2023/03/03 07:17:17;;;;;;;0.40;0.40;;;6.70;99.90;;;;;;5069384;28;20486;-83
2023/03/03 07:19:44;;;;;;;2.97;1.20;;;6.30;99.90;;;;;;5067975;28;20328;-81
2023/03/03 07:22:18;;;;;;;1.40;0.83;;;5.90;99.90;;;;;;5069033;28;20236;-82
2023/03/03 07:24:47;;;;;;;0.73;0.73;;;6.00;99.90;;;;;;5090888;28;20215;-82
2023/03/03 07:27:18;;;;;;;3.83;1.33;;;5.90;99.90;;;;;;5090386;28;20213;-82
2023/03/03 07:29:50;;;;;;;0.60;0.60;;;5.80;99.90;;;;;;5091105;28;20169;-82
2023/03/03 07:32:27;;;;;;;0.50;0.50;;;5.70;99.90;;;;;;5090159;28;20179;-81
2023/03/03 07:34:55;;;;;;;0.40;0.40;;;5.70;99.90;;;;;;5071642;28;20223;-80
2023/03/03 07:37:27;;;;;;;0.40;0.40;;;5.90;99.90;;;;;;5090431;28;20783;-81
2023/03/03 07:39:52;;;;;;;0.30;0.30;;;5.80;99.90;;;;;;5089919;28;20262;-81
2023/03/03 07:42:40;;;;;;;0.30;0.30;;;5.80;99.90;;;;;;5090316;28;20691;-81
2023/03/03 07:45:34;;;;;;;0.40;0.40;;;6.20;99.90;;;;;;5072392;28;20246;-80
2023/03/03 07:48:12;;;;;;;0.97;0.97;;;6.00;99.90;;;;;;5072084;28;20217;-81
2023/03/03 07:50:39;;;;;;;0.40;0.40;;;5.80;99.90;;;;;;5089084;28;20215;-82
2023/03/03 07:53:17;;;;;;;0.50;0.50;;;5.50;99.90;;;;;;5090029;28;20181;-81
2023/03/03 07:55:44;;;;;;;0.40;0.40;;;5.40;99.90;;;;;;5072068;28;20291;-81
2023/03/03 07:58:16;;;;;;;0.30;0.30;;;5.40;99.90;;;;;;5088821;28;20224;-81
2023/03/03 08:00:44;;;;;;;1.07;0.53;;;5.20;99.90;;;;;;5071357;28;20232;-81
2023/03/03 08:03:19;;;;;;;0.30;0.30;;;5.20;99.90;;;;;;5089559;28;20262;-81
2023/03/03 08:05:50;;;;;;;0.57;0.50;;;5.20;99.90;;;;;;5089197;28;20184;-81
2023/03/03 08:08:35;;;;;;;0.67;0.53;;;5.30;99.90;;;;;;5089959;28;20760;-81
2023/03/03 08:11:02;;;;;;;1.17;0.60;;;5.40;99.90;;;;;;5089434;28;20426;-81
2023/03/03 08:13:28;;;;;;;0.70;0.70;;;5.50;99.90;;;;;;5089494;28;20209;-80
2023/03/03 08:16:14;;;;;;;0.27;0.27;;;5.40;99.90;;;;;;5089334;28;20306;-81
2023/03/03 08:18:48;;;;;;;0.67;0.67;;;5.60;99.90;;;;;;5063850;28;20220;-81
2023/03/03 08:21:20;;;;;;;0.40;0.40;;;5.70;99.90;;;;;;5071112;28;20224;-82
2023/03/03 08:23:48;;;;;;;0.20;0.20;;;5.80;99.90;;;;;;5070234;28;20165;-81
2023/03/03 08:26:15;;;;;;;0.20;0.20;;;5.80;99.90;;;;;;5088533;28;20185;-81
2023/03/03 08:28:41;;;;;;;0.40;0.40;;;5.90;99.90;;;;;;5089290;28;20358;-81
2023/03/03 08:31:07;;;;;;;0.20;0.20;;;6.00;99.90;;;;;;5071067;28;20667;-83
2023/03/03 08:33:33;;;;;;;0.40;0.40;;;6.10;99.90;;;;;;5088662;28;20223;-83
2023/03/03 08:35:59;;;;;;;1.40;0.40;;;6.20;99.90;;;;;;5088593;28;20216;-82
2023/03/03 08:38:25;;;;;;;0.60;0.60;;;6.20;99.90;;;;;;5071452;28;20172;-82
2023/03/03 08:40:51;;;;;;;0.83;0.53;;;6.10;99.90;;;;;;5088641;28;20731;-82
2023/03/03 08:43:20;;;;;;;0.10;0.10;;;6.10;99.90;;;;;;5070718;28;20299;-82
2023/03/03 08:45:48;;;;;;;0.33;0.33;;;6.10;99.90;;;;;;5070907;28;20216;-81
2023/03/03 08:48:15;;;;;;;0.50;0.50;;;6.20;99.90;;;;;;5088793;28;20242;-82
2023/03/03 08:50:42;;;;;;;0.60;0.47;;;6.20;99.90;;;;;;5071337;28;20173;-82
2023/03/03 08:53:08;;;;;;;0.50;0.50;;;6.20;99.90;;;;;;5089933;28;20211;-83
2023/03/03 08:55:34;;;;;;;0.27;0.27;;;6.30;99.90;;;;;;5070352;28;20314;-81
2023/03/03 08:58:00;;;;;;;0.30;0.30;;;6.40;99.90;;;;;;5069468;28;20815;-81
2023/03/03 09:00:26;;;;;;;0.40;0.37;;;6.50;99.90;;;;;;5070570;28;20243;-81
2023/03/03 09:02:52;;;;;;;0.40;0.40;;;6.60;99.90;;;;;;5053924;28;20177;-81
2023/03/03 09:05:19;;;;;;;0.40;0.40;;;6.70;99.90;;;;;;5089054;28;20583;-81
2023/03/03 09:07:46;;;;;;;0.30;0.30;;;6.80;99.90;;;;;;5087693;28;20625;-82
2023/03/03 09:10:16;;;;;;;0.40;0.40;;;6.80;99.90;;;;;;5088648;28;20265;-81
2023/03/03 09:12:47;;;;;;;0.30;0.30;;;7.00;99.90;;;;;;5069771;28;20244;-82
2023/03/03 09:15:18;;;;;;;0.40;0.40;;;7.10;99.90;;;;;;5069972;28;20291;-82
2023/03/03 09:17:44;;;;;;;0.30;0.30;;;7.20;99.90;;;;;;5088123;28;20234;-81
2023/03/03 09:20:31;;;;;;;0.63;0.60;;;7.30;99.90;;;;;;5087907;28;20270;-82
2023/03/03 09:22:58;;;;;;;0.20;0.20;;;7.20;99.90;;;;;;5088756;28;20263;-83
2023/03/03 09:25:33;;;;;;;0.47;0.40;;;7.20;99.90;;;;;;5088257;28;20223;-83
2023/03/03 09:28:01;;;;;;;0.27;0.27;;;7.20;99.90;;;;;;5070144;28;20341;-83
2023/03/03 09:30:37;;;;;;;0.20;0.20;;;7.10;99.90;;;;;;5088303;28;20232;-83
2023/03/03 09:33:23;;;;;;;0.20;0.20;;;7.00;99.90;;;;;;5088395;28;20623;-82
2023/03/03 09:36:25;;;;;;;0.30;0.30;;;7.00;99.90;;;;;;5088223;28;20176;-83
2023/03/03 09:38:52;;;;;;;12.40;0.50;;;6.80;99.90;;;;;;5072178;28;20680;-83
2023/03/03 09:41:48;;;;;;;0.10;0.10;;;6.90;99.90;;;;;;5088199;28;20299;-82
2023/03/03 09:44:21;;;;;;;0.20;0.20;;;6.80;99.90;;;;;;5088053;28;20258;-82
2023/03/03 09:46:58;;;;;;;0.20;0.20;;;6.80;99.90;;;;;;5069258;28;20223;-83
2023/03/03 09:49:40;;;;;;;0.20;0.20;;;6.90;99.90;;;;;;5070097;28;20226;-82
2023/03/03 09:52:24;;;;;;;0.80;0.80;;;6.90;99.90;;;;;;5088100;28;20228;-82
2023/03/03 09:55:21;;;;;;;0.23;0.23;;;6.90;99.90;;;;;;5088047;28;20299;-83
2023/03/03 09:58:02;;;;;;;0.20;0.20;;;6.90;99.90;;;;;;5087861;28;20209;-82
2023/03/03 10:01:18;;;;;;;0.20;0.20;;;7.00;99.90;;;;;;5067566;28;20267;-82
2023/03/03 10:04:15;;;;;;;0.20;0.20;;;7.10;99.90;;;;;;5058530;28;20291;-83
2023/03/03 10:07:14;;;;;;;0.87;0.87;;;7.00;99.90;;;;;;5069420;28;20677;-82
2023/03/03 10:09:43;;;;;;;0.30;0.30;;;7.30;99.90;;;;;;5087781;28;20670;-82
2023/03/03 10:12:42;;;;;;;0.40;0.40;;;7.60;99.90;;;;;;5087793;28;20216;-82
2023/03/03 10:15:25;;;;;;;0.20;0.20;;;8.00;99.90;;;;;;5087962;28;20232;-81
2023/03/03 10:18:08;;;;;;;0.40;0.40;;;8.00;99.90;;;;;;5070093;28;20211;-82
2023/03/03 10:20:46;;;;;;;0.33;0.33;;;8.20;99.90;;;;;;5069602;28;20232;-85
2023/03/03 10:23:33;;;;;;;0.40;0.27;;;8.80;99.90;;;;;;5069679;28;20200;-81
2023/03/03 10:26:31;;;;;;;0.30;0.30;;;8.40;99.90;;;;;;5068979;28;20232;-81
2023/03/03 10:29:28;;;;;;;2.43;0.67;;;8.20;99.90;;;;;;5087369;28;20303;-81
2023/03/03 10:32:18;;;;;;;0.30;0.30;;;8.30;99.90;;;;;;5069613;28;20309;-82
2023/03/03 10:34:48;;;;;;;0.30;0.30;;;8.60;99.90;;;;;;5069023;28;20830;-81
2023/03/03 10:37:14;;;;;;;0.93;0.33;;;8.50;99.90;;;;;;5069347;28;20245;-81
2023/03/03 10:39:55;;;;;;;0.63;0.63;;;8.50;99.90;;;;;;5069317;28;20272;-82
2023/03/03 10:42:27;;;;;;;0.63;0.60;;;8.70;99.90;;;;;;5087185;28;20244;-81
2023/03/03 10:45:05;;;;;;;0.20;0.20;;;8.80;99.90;;;;;;5069424;28;20220;-80
2023/03/03 10:48:08;;;;;;;0.13;0.13;;;8.70;99.90;;;;;;5069698;28;20160;-81
2023/03/03 10:50:53;;;;;;;0.30;0.30;;;8.50;99.90;;;;;;5058133;28;20247;-81
2023/03/03 10:53:30;;;;;;;0.30;0.30;;;8.40;99.90;;;;;;5087763;28;20188;-81
2023/03/03 10:56:17;;;;;;;0.20;0.20;;;8.40;99.90;;;;;;5086932;28;20224;-82
2023/03/03 10:59:14;;;;;;;0.37;0.37;;;8.40;99.90;;;;;;5086745;28;20220;-81
2023/03/03 11:01:44;;;;;;;0.30;0.30;;;8.40;99.90;;;;;;5087207;28;20232;-81
2023/03/03 11:04:45;;;;;;;0.23;0.23;;;8.20;99.90;;;;;;5087183;28;20696;-81
2023/03/03 11:07:17;;;;;;;1.33;1.20;;;8.20;99.90;;;;;;5087147;28;20220;-82
2023/03/03 11:10:17;;;;;;;0.20;0.20;;;8.00;99.90;;;;;;5069046;28;20221;-81
2023/03/03 11:13:10;;;;;;;0.20;0.20;;;7.90;99.90;;;;;;5086955;28;20362;-81
2023/03/03 11:15:42;;;;;;;0.40;0.40;;;8.20;99.90;;;;;;5086941;28;20216;-82
2023/03/03 11:18:36;;;;;;;1.27;0.73;;;8.60;99.90;;;;;;5068890;28;20223;-80
2023/03/03 11:21:07;;;;;;;0.20;0.20;;;8.60;99.90;;;;;;5068632;28;20339;-82
2023/03/03 11:24:05;;;;;;;0.10;0.10;;;8.60;99.90;;;;;;5086988;28;20184;-82
2023/03/03 11:27:14;;;;;;;0.30;0.30;;;8.60;99.90;;;;;;5087152;28;20228;-82
2023/03/03 11:29:39;;;;;;;0.20;0.20;;;8.70;99.90;;;;;;5086095;28;20205;-81
2023/03/03 11:32:23;;;;;;;0.10;0.10;;;8.60;99.90;;;;;;5087794;28;20254;-83
2023/03/03 11:35:07;;;;;;;0.30;0.30;;;8.60;99.90;;;;;;5086643;28;20270;-81
2023/03/03 11:37:47;;;;;;;0.20;0.20;;;8.50;99.90;;;;;;5087224;28;20373;-81
2023/03/03 11:40:20;;;;;;;0.30;0.30;;;8.50;99.90;;;;;;5068493;28;20235;-81
2023/03/03 11:43:11;;;;;;;19.17;1.10;;;8.50;99.90;;;;;;5088785;28;20374;-90
2023/03/03 11:45:49;;;;;;;5.33;0.60;;;8.30;99.90;;;;;;5072046;28;20223;-91
2023/03/03 11:48:37;;;;;;;0.97;0.97;;;8.40;99.90;;;;;;5090430;28;20360;-89
2023/03/03 11:51:26;;;;;;;0.33;0.33;;;8.50;99.90;;;;;;5071709;28;20220;-87
2023/03/03 11:54:29;;;;;;;0.40;0.27;;;8.70;99.90;;;;;;5071630;28;20177;-89
2023/03/03 11:57:15;;;;;;;0.40;0.40;;;8.70;99.90;;;;;;5071946;28;20307;-83
2023/03/03 11:59:52;;;;;;;0.70;0.70;;;8.70;99.90;;;;;;5087652;28;20244;-85
2023/03/03 12:02:30;;;;;;;0.10;0.10;;;8.60;99.90;;;;;;5070830;28;20626;-84
2023/03/03 12:05:24;;;;;;;2.53;1.40;;;8.50;99.90;;;;;;5069975;28;20220;-84
2023/03/03 12:08:14;;;;;;;3.10;0.77;;;8.50;99.90;;;;;;5069655;28;20212;-83
2023/03/03 12:11:03;;;;;;;0.37;0.37;;;8.70;99.90;;;;;;5072379;28;20221;-84
2023/03/03 12:13:54;;;;;;;4.93;0.67;;;8.50;99.90;;;;;;5072715;28;20428;-83
2023/03/03 12:16:33;;;;;;;0.10;0.10;;;8.10;99.90;;;;;;5073209;28;20351;-84
2023/03/03 12:19:16;;;;;;;0.43;0.43;;;8.20;99.90;;;;;;5073054;28;20629;-84
2023/03/03 12:22:20;;;;;;;0.20;0.20;;;8.20;99.90;;;;;;5072991;28;20232;-84
2023/03/03 12:24:54;;;;;;;1.10;0.50;;;8.20;99.90;;;;;;5072985;28;20238;-84
2023/03/03 12:27:26;;;;;;;0.27;0.27;;;8.10;99.90;;;;;;5073204;28;20238;-85
2023/03/03 12:29:55;;;;;;;14.90;3.70;;;7.80;99.90;;;;;;5090913;28;20189;-84
2023/03/03 12:32:47;;;;;;;0.60;0.60;;;7.80;99.90;;;;;;5091715;28;20181;-84
2023/03/03 12:35:24;;;;;;;0.67;0.50;;;7.80;99.90;;;;;;5091331;28;20196;-85
2023/03/03 12:38:08;;;;;;;0.33;0.33;;;7.80;99.90;;;;;;5072794;28;20216;-84
2023/03/03 12:40:38;;;;;;;0.20;0.20;;;7.90;99.90;;;;;;5072687;28;20224;-84
2023/03/03 12:43:22;;;;;;;0.87;0.87;;;7.80;99.90;;;;;;5091270;28;20804;-85
2023/03/03 12:45:54;;;;;;;4.27;0.60;;;7.80;99.90;;;;;;5090778;28;20832;-84
2023/03/03 12:48:29;;;;;;;0.73;0.60;;;8.00;99.90;;;;;;5072816;28;20248;-85
2023/03/03 12:51:09;;;;;;;7.63;0.77;;;7.90;99.90;;;;;;5072722;28;20235;-84
2023/03/03 12:53:44;;;;;;;1.13;1.13;;;7.90;99.90;;;;;;5073029;28;20180;-85
2023/03/03 12:56:28;;;;;;;0.73;0.63;;;8.00;99.90;;;;;;5091330;28;20184;-85
2023/03/03 12:59:10;;;;;;;0.53;0.53;;;8.00;99.90;;;;;;5090858;28;20247;-85
2023/03/03 13:01:54;;;;;;;0.73;0.60;;;7.90;99.90;;;;;;5090724;28;20237;-85
2023/03/03 13:04:30;;;;;;;0.10;0.10;;;7.90;99.90;;;;;;5072698;28;20266;-85
2023/03/03 13:07:12;;;;;;;0.20;0.20;;;7.70;99.90;;;;;;5072500;28;20340;-85
2023/03/03 13:10:08;;;;;;;1.60;0.40;;;7.60;99.90;;;;;;5072601;28;20208;-85
2023/03/03 13:12:46;;;;;;;0.20;0.20;;;7.70;99.90;;;;;;5072773;28;20239;-85
2023/03/03 13:15:17;;;;;;;0.43;0.43;;;7.50;99.90;;;;;;5090588;28;20579;-85
2023/03/03 13:18:18;;;;;;;0.20;0.20;;;7.50;99.90;;;;;;5071617;28;20630;-86
2023/03/03 13:20:52;;;;;;;0.97;0.97;;;7.50;99.90;;;;;;5090711;28;20323;-87
2023/03/03 13:23:38;;;;;;;0.73;0.60;;;7.80;99.90;;;;;;5074514;28;20168;-88
2023/03/03 13:26:23;;;;;;;1.73;1.63;;;8.10;99.90;;;;;;5072323;28;20460;-82
2023/03/03 13:28:49;;;;;;;0.30;0.30;;;7.90;99.90;;;;;;5070724;28;20227;-86